createdAt,value
2022-12-18T00:01:34.978Z,17.40
2022-12-18T00:04:15.807Z,18.00
2022-12-18T00:06:42.763Z,17.40
2022-12-18T00:09:11.322Z,16.70
2022-12-18T00:11:38.047Z,17.40
2022-12-18T00:14:05.036Z,17.70
2022-12-18T00:16:33.431Z,20.00
2022-12-18T00:19:00.872Z,17.70
2022-12-18T00:21:29.335Z,17.70
2022-12-18T00:23:56.985Z,17.00
2022-12-18T00:26:26.489Z,14.90
2022-12-18T00:28:56.148Z,15.00
2022-12-18T00:31:25.226Z,16.00
2022-12-18T00:33:57.476Z,14.10
2022-12-18T00:36:28.121Z,14.60
2022-12-18T00:38:56.406Z,14.50
2022-12-18T00:41:42.883Z,11.90
2022-12-18T00:44:12.940Z,13.20
2022-12-18T00:46:40.214Z,14.40
2022-12-18T00:49:07.773Z,15.10
2022-12-18T00:51:34.646Z,14.40
2022-12-18T00:54:01.582Z,13.40
2022-12-18T00:56:28.258Z,13.40
2022-12-18T00:58:55.111Z,12.30
2022-12-18T01:01:22.024Z,14.00
2022-12-18T01:03:48.904Z,12.40
2022-12-18T01:06:17.692Z,11.80
2022-12-18T01:08:45.071Z,13.50
2022-12-18T01:11:16.428Z,13.20
2022-12-18T01:13:43.348Z,13.40
2022-12-18T01:16:13.201Z,12.00
2022-12-18T01:18:40.353Z,12.80
2022-12-18T01:21:09.125Z,10.40
2022-12-18T01:23:38.626Z,11.70
2022-12-18T01:26:11.237Z,12.40
2022-12-18T01:28:41.138Z,12.20
2022-12-18T01:31:13.694Z,12.00
2022-12-18T01:33:41.590Z,10.50
2022-12-18T01:36:15.433Z,9.80
2022-12-18T01:38:42.380Z,10.70
2022-12-18T01:41:10.057Z,10.30
2022-12-18T01:43:53.144Z,9.40
2022-12-18T01:46:23.097Z,9.90
2022-12-18T01:48:58.806Z,9.00
2022-12-18T01:51:30.086Z,8.40
2022-12-18T01:53:58.093Z,8.90
2022-12-18T01:56:24.835Z,8.50
2022-12-18T01:59:00.434Z,7.40
2022-12-18T02:01:27.706Z,9.00
2022-12-18T02:03:54.471Z,9.40
2022-12-18T02:06:40.232Z,8.70
2022-12-18T02:09:34.297Z,7.20
2022-12-18T02:12:16.486Z,9.40
2022-12-18T02:14:54.357Z,8.40
2022-12-18T02:17:37.082Z,8.20
2022-12-18T02:20:19.660Z,11.00
2022-12-18T02:23:16.418Z,10.00
2022-12-18T02:25:58.682Z,9.80
2022-12-18T02:28:31.677Z,9.90
2022-12-18T02:31:02.139Z,9.60
2022-12-18T02:33:31.410Z,10.10
2022-12-18T02:36:00.622Z,9.50
2022-12-18T02:38:30.206Z,9.50
2022-12-18T02:40:58.097Z,11.60
2022-12-18T02:43:24.865Z,12.60
2022-12-18T02:45:58.582Z,11.70
2022-12-18T02:48:35.891Z,11.20
2022-12-18T02:51:24.443Z,11.80
2022-12-18T02:54:09.710Z,11.90
2022-12-18T02:56:54.568Z,12.10
2022-12-18T02:59:37.412Z,11.80
2022-12-18T03:02:22.640Z,14.00
2022-12-18T03:05:06.561Z,14.20
2022-12-18T03:07:45.293Z,14.80
2022-12-18T03:10:17.289Z,12.40
2022-12-18T03:12:52.785Z,14.70
2022-12-18T03:15:35.309Z,14.20
2022-12-18T03:18:25.468Z,15.50
2022-12-18T03:20:56.978Z,15.60
2022-12-18T03:23:28.244Z,17.60
2022-12-18T03:26:04.373Z,16.80
2022-12-18T03:28:42.617Z,15.20
2022-12-18T03:31:11.700Z,15.50
2022-12-18T03:33:47.532Z,17.70
2022-12-18T03:36:15.350Z,18.50
2022-12-18T03:38:42.561Z,15.90
2022-12-18T03:41:23.864Z,14.50
2022-12-18T03:44:16.344Z,15.10
2022-12-18T03:47:03.575Z,14.70
2022-12-18T03:50:08.367Z,14.50
2022-12-18T03:52:54.555Z,15.00
2022-12-18T03:55:26.181Z,21.60
2022-12-18T03:57:59.344Z,18.90
2022-12-18T04:00:28.408Z,14.50
2022-12-18T04:03:02.330Z,15.00
2022-12-18T04:05:37.392Z,15.70
2022-12-18T04:08:05.546Z,15.30
2022-12-18T04:10:36.288Z,16.00
2022-12-18T04:13:03.534Z,14.10
2022-12-18T04:15:35.116Z,15.30
2022-12-18T04:18:03.896Z,16.90
2022-12-18T04:20:36.781Z,16.40
2022-12-18T04:23:03.787Z,15.30
2022-12-18T04:25:30.649Z,16.80
2022-12-18T04:28:06.032Z,16.20
2022-12-18T04:30:33.435Z,16.50
2022-12-18T04:33:00.393Z,16.90
2022-12-18T04:35:27.624Z,14.20
2022-12-18T04:37:55.430Z,16.30
2022-12-18T04:40:22.504Z,16.50
2022-12-18T04:42:49.624Z,17.70
2022-12-18T04:45:16.747Z,17.30
2022-12-18T04:47:43.444Z,16.80
2022-12-18T04:50:10.231Z,17.10
2022-12-18T04:52:36.980Z,16.10
2022-12-18T04:55:04.162Z,16.00
2022-12-18T04:57:33.667Z,16.70
2022-12-18T05:00:00.326Z,15.30
2022-12-18T05:02:27.238Z,14.20
2022-12-18T05:04:54.090Z,17.70
2022-12-18T05:07:20.764Z,16.80
2022-12-18T05:09:47.626Z,15.60
2022-12-18T05:12:14.322Z,15.00
2022-12-18T05:14:41.129Z,14.90
2022-12-18T05:17:07.973Z,14.20
2022-12-18T05:19:34.776Z,16.00
2022-12-18T05:22:02.194Z,16.10
2022-12-18T05:24:28.886Z,15.20
2022-12-18T05:26:55.591Z,16.40
2022-12-18T05:29:22.403Z,17.30
2022-12-18T05:31:49.228Z,17.80
2022-12-18T05:34:16.257Z,17.50
2022-12-18T05:36:43.164Z,20.70
2022-12-18T05:39:11.364Z,19.90
2022-12-18T05:41:38.282Z,20.00
2022-12-18T05:44:05.430Z,20.30
2022-12-18T05:46:32.723Z,20.80
2022-12-18T05:49:01.504Z,19.90
2022-12-18T05:51:28.453Z,19.10
2022-12-18T05:53:55.608Z,18.60
2022-12-18T05:56:23.627Z,20.10
2022-12-18T05:58:54.604Z,20.00
2022-12-18T06:01:24.421Z,28.50
2022-12-18T06:03:51.376Z,23.10
2022-12-18T06:06:21.201Z,19.30
2022-12-18T06:08:48.638Z,23.40
2022-12-18T06:11:22.410Z,28.50
2022-12-18T06:13:58.296Z,18.40
2022-12-18T06:16:27.951Z,22.80
2022-12-18T06:19:03.190Z,22.80
2022-12-18T06:21:30.925Z,22.70
2022-12-18T06:24:00.108Z,20.70
2022-12-18T06:26:28.467Z,17.20
2022-12-18T06:28:56.446Z,18.10
2022-12-18T06:31:23.528Z,18.60
2022-12-18T06:33:50.661Z,17.20
2022-12-18T06:36:17.735Z,17.60
2022-12-18T06:38:45.245Z,16.90
2022-12-18T06:41:17.917Z,19.90
2022-12-18T06:43:45.357Z,17.90
2022-12-18T06:46:12.540Z,16.80
2022-12-18T06:48:39.395Z,19.90
2022-12-18T06:51:06.206Z,20.00
2022-12-18T06:53:33.484Z,17.50
2022-12-18T06:56:09.917Z,20.80
2022-12-18T06:58:38.467Z,22.20
2022-12-18T07:01:07.775Z,20.70
2022-12-18T07:03:34.827Z,19.80
2022-12-18T07:06:01.665Z,21.30
2022-12-18T07:08:30.349Z,15.60
2022-12-18T07:10:57.621Z,14.90
2022-12-18T07:13:24.451Z,12.70
2022-12-18T07:15:51.149Z,13.50
2022-12-18T07:18:17.876Z,14.60
2022-12-18T07:20:45.261Z,12.70
2022-12-18T07:23:12.961Z,11.80
2022-12-18T07:25:40.128Z,11.10
2022-12-18T07:28:07.037Z,11.50
2022-12-18T07:30:33.887Z,11.30
2022-12-18T07:33:00.636Z,10.70
2022-12-18T07:35:27.582Z,10.70
2022-12-18T07:37:54.406Z,11.30
2022-12-18T07:40:21.316Z,11.70
2022-12-18T07:42:48.112Z,12.80
2022-12-18T07:45:14.902Z,11.10
2022-12-18T07:47:41.877Z,13.20
2022-12-18T07:50:09.228Z,12.70
2022-12-18T07:52:35.953Z,12.90
2022-12-18T07:55:03.092Z,12.60
2022-12-18T08:00:16.900Z,13.30
2022-12-18T08:02:43.741Z,10.90
2022-12-18T08:05:10.759Z,11.00
2022-12-18T08:07:38.043Z,10.30
2022-12-18T08:10:05.748Z,11.30
2022-12-18T08:12:33.023Z,12.40
2022-12-18T08:14:59.819Z,12.00
2022-12-18T08:17:26.484Z,12.40
2022-12-18T08:19:53.380Z,10.50
2022-12-18T08:22:20.308Z,10.60
2022-12-18T08:24:47.134Z,10.00
2022-12-18T08:27:28.858Z,10.30
2022-12-18T08:29:57.571Z,9.40
2022-12-18T08:32:25.779Z,9.60
2022-12-18T08:34:52.768Z,9.80
2022-12-18T08:37:19.636Z,11.40
2022-12-18T08:39:46.295Z,10.50
2022-12-18T08:42:31.773Z,12.10
2022-12-18T08:45:02.699Z,10.60
2022-12-18T08:47:29.518Z,11.00
2022-12-18T08:49:56.369Z,9.80
2022-12-18T08:52:23.032Z,11.80
2022-12-18T08:54:50.297Z,11.70
2022-12-18T08:57:17.120Z,12.60
2022-12-18T08:59:43.924Z,10.70
2022-12-18T09:02:12.163Z,11.30
2022-12-18T09:04:40.338Z,11.70
2022-12-18T09:07:07.376Z,11.00
2022-12-18T09:09:34.239Z,13.90
2022-12-18T09:12:01.031Z,11.20
2022-12-18T09:14:27.889Z,9.80
2022-12-18T09:16:54.528Z,10.10
2022-12-18T09:19:21.278Z,10.10
2022-12-18T09:21:48.583Z,12.90
2022-12-18T09:24:16.412Z,14.70
2022-12-18T09:26:46.872Z,15.00
2022-12-18T09:29:18.856Z,15.70
2022-12-18T09:31:47.314Z,14.40
2022-12-18T09:34:14.119Z,15.50
2022-12-18T09:36:40.841Z,16.20
2022-12-18T09:39:08.754Z,18.40
2022-12-18T09:41:47.637Z,16.10
2022-12-18T09:44:20.443Z,14.80
2022-12-18T09:47:19.405Z,21.40
2022-12-18T09:49:49.987Z,17.00
2022-12-18T09:52:26.855Z,20.30
2022-12-18T09:55:12.218Z,11.90
2022-12-18T09:57:48.132Z,15.80
2022-12-18T10:00:25.454Z,17.00
2022-12-18T10:02:56.955Z,15.20
2022-12-18T10:05:55.039Z,13.90
2022-12-18T10:08:54.161Z,15.10
2022-12-18T10:11:33.850Z,13.60
2022-12-18T10:14:38.809Z,14.60
2022-12-18T10:17:34.415Z,15.20
2022-12-18T10:20:16.589Z,14.70
2022-12-18T10:23:10.970Z,11.60
2022-12-18T10:26:08.434Z,10.80
2022-12-18T10:28:41.115Z,16.50
2022-12-18T10:31:17.441Z,15.80
2022-12-18T10:33:44.660Z,14.30
2022-12-18T10:36:11.989Z,11.50
2022-12-18T10:38:39.757Z,15.80
2022-12-18T10:41:12.065Z,14.50
2022-12-18T10:43:40.244Z,14.20
2022-12-18T10:46:09.761Z,13.60
2022-12-18T10:48:39.944Z,11.90
2022-12-18T10:51:12.088Z,11.30
2022-12-18T10:53:43.100Z,10.60
2022-12-18T10:56:10.173Z,11.90
2022-12-18T10:58:39.238Z,11.30
2022-12-18T11:01:18.118Z,10.60
2022-12-18T11:04:02.039Z,11.60
2022-12-18T11:06:32.969Z,10.40
2022-12-18T11:09:12.640Z,12.90
2022-12-18T11:11:41.396Z,13.30
2022-12-18T11:14:22.320Z,18.20
2022-12-18T11:19:41.646Z,11.40
2022-12-18T11:22:41.137Z,11.60
2022-12-18T11:25:34.488Z,13.80
2022-12-18T11:28:06.582Z,14.60
2022-12-18T11:30:37.471Z,9.30
2022-12-18T11:33:22.347Z,15.00
2022-12-18T11:36:05.166Z,11.00
2022-12-18T11:38:36.354Z,14.40
2022-12-18T11:41:03.012Z,14.10
2022-12-18T11:43:45.734Z,11.30
2022-12-18T11:46:19.995Z,12.50
2022-12-18T11:48:58.234Z,12.70
2022-12-18T11:51:42.259Z,18.40
2022-12-18T11:54:14.977Z,18.50
2022-12-18T11:56:46.469Z,13.80
2022-12-18T11:59:56.455Z,13.00
2022-12-18T12:02:49.853Z,13.30
2022-12-18T12:05:31.953Z,11.50
2022-12-18T12:08:12.184Z,13.10
2022-12-18T12:10:47.801Z,14.10
2022-12-18T12:13:39.093Z,13.80
2022-12-18T12:16:12.984Z,13.80
2022-12-18T12:19:14.313Z,13.30
2022-12-18T12:21:54.233Z,12.20
2022-12-18T12:24:39.921Z,12.40
2022-12-18T12:27:24.734Z,12.30
2022-12-18T12:30:08.806Z,9.00
2022-12-18T12:33:03.142Z,12.40
2022-12-18T12:35:35.725Z,8.70
2022-12-18T12:38:11.576Z,16.10
2022-12-18T12:40:53.943Z,6.50
2022-12-18T12:43:29.831Z,8.10
2022-12-18T12:46:14.574Z,6.50
2022-12-18T12:48:51.784Z,8.40
2022-12-18T12:51:40.626Z,7.10
2022-12-18T12:54:18.121Z,5.80
2022-12-18T12:57:14.911Z,7.00
2022-12-18T13:00:06.731Z,8.60
2022-12-18T13:02:40.373Z,8.30
2022-12-18T13:05:35.023Z,7.10
2022-12-18T13:10:38.927Z,7.00
2022-12-18T13:13:21.167Z,8.60
2022-12-18T13:16:07.000Z,9.30
2022-12-18T13:18:35.093Z,8.70
2022-12-18T13:21:08.490Z,7.50
2022-12-18T13:23:39.928Z,8.80
2022-12-18T13:26:10.265Z,8.50
2022-12-18T13:28:46.682Z,10.40
2022-12-18T13:31:15.454Z,9.90
2022-12-18T13:34:16.647Z,9.50
2022-12-18T13:36:34.215Z,10.00
2022-12-18T13:39:12.276Z,11.70
2022-12-18T13:41:39.790Z,7.90
2022-12-18T13:44:20.654Z,8.90
2022-12-18T13:46:51.542Z,10.60
2022-12-18T13:49:30.879Z,11.40
2022-12-18T13:51:57.857Z,9.30
2022-12-18T13:54:36.220Z,10.30
2022-12-18T13:57:05.211Z,11.40
2022-12-18T13:59:37.503Z,11.50
2022-12-18T14:02:25.548Z,12.20
2022-12-18T14:04:54.089Z,12.30
2022-12-18T14:07:33.086Z,11.60
2022-12-18T14:10:41.793Z,12.40
2022-12-18T14:13:07.302Z,12.30
2022-12-18T14:15:35.992Z,14.80
2022-12-18T14:18:26.149Z,14.50
2022-12-18T14:20:57.231Z,13.90
2022-12-18T14:23:30.636Z,15.70
2022-12-18T14:26:02.101Z,18.80
2022-12-18T14:28:32.684Z,25.00
2022-12-18T14:30:59.586Z,22.20
2022-12-18T14:33:28.308Z,26.40
2022-12-18T14:36:06.108Z,25.70
2022-12-18T14:38:32.769Z,24.90
2022-12-18T14:41:14.185Z,28.20
2022-12-18T14:43:43.646Z,27.50
2022-12-18T14:46:37.333Z,23.60
2022-12-18T14:49:33.636Z,25.00
2022-12-18T14:52:06.174Z,25.70
2022-12-18T14:54:37.439Z,22.50
2022-12-18T14:57:05.690Z,23.50
2022-12-18T14:59:33.275Z,27.90
2022-12-18T15:02:24.175Z,31.80
2022-12-18T15:05:05.166Z,31.20
2022-12-18T15:07:49.118Z,40.40
2022-12-18T15:10:20.587Z,40.00
2022-12-18T15:13:06.765Z,43.10
2022-12-18T15:15:34.037Z,48.80
2022-12-18T15:18:03.912Z,42.20
2022-12-18T15:20:33.551Z,38.90
2022-12-18T15:23:00.425Z,33.40
2022-12-18T15:25:37.629Z,28.70
2022-12-18T15:28:16.374Z,28.80
2022-12-18T15:30:59.051Z,26.20
2022-12-18T15:33:30.152Z,24.80
2022-12-18T15:36:02.144Z,24.30
2022-12-18T15:38:28.968Z,27.30
2022-12-18T15:40:55.860Z,27.00
2022-12-18T15:43:37.045Z,26.20
2022-12-18T15:46:11.461Z,21.90
2022-12-18T15:48:41.898Z,19.80
2022-12-18T15:51:21.932Z,21.20
2022-12-18T15:53:52.868Z,21.80
2022-12-18T15:56:39.025Z,26.00
2022-12-18T15:59:12.433Z,27.20
2022-12-18T16:01:42.693Z,26.80
2022-12-18T16:04:13.431Z,27.20
2022-12-18T16:07:05.668Z,27.70
2022-12-18T16:09:27.398Z,30.60
2022-12-18T16:11:54.472Z,40.00
2022-12-18T16:14:24.224Z,52.60
2022-12-18T16:17:03.008Z,58.10
2022-12-18T16:19:30.573Z,59.30
2022-12-18T16:21:59.090Z,50.90
2022-12-18T16:24:29.305Z,46.20
2022-12-18T16:26:59.571Z,48.40
2022-12-18T16:29:27.939Z,48.10
2022-12-18T16:31:56.120Z,42.20
2022-12-18T16:34:28.851Z,38.60
2022-12-18T16:37:05.158Z,40.20
2022-12-18T16:39:37.487Z,44.50
2022-12-18T16:42:16.673Z,40.50
2022-12-18T16:44:44.213Z,40.30
2022-12-18T16:47:11.376Z,47.70
2022-12-18T16:49:44.770Z,47.20
2022-12-18T16:52:13.720Z,52.00
2022-12-18T16:54:40.669Z,51.40
2022-12-18T16:57:12.483Z,44.20
2022-12-18T16:59:39.313Z,55.70
2022-12-18T17:02:14.893Z,42.60
2022-12-18T17:04:42.919Z,32.50
2022-12-18T17:07:10.563Z,30.80
2022-12-18T17:09:38.534Z,29.20
2022-12-18T17:12:05.994Z,27.70
2022-12-18T17:14:33.294Z,30.50
2022-12-18T17:17:20.495Z,39.00
2022-12-18T17:19:47.351Z,33.40
2022-12-18T17:22:14.057Z,31.90
2022-12-18T17:24:40.757Z,28.70
2022-12-18T17:27:08.312Z,25.60
2022-12-18T17:29:35.558Z,21.20
2022-12-18T17:32:02.510Z,25.00
2022-12-18T17:34:30.115Z,27.50
2022-12-18T17:36:57.785Z,28.60
2022-12-18T17:39:25.240Z,28.40
2022-12-18T17:41:52.149Z,25.70
2022-12-18T17:44:18.867Z,25.50
2022-12-18T17:46:46.336Z,25.20
2022-12-18T17:49:13.416Z,20.20
2022-12-18T17:51:42.322Z,23.40
2022-12-18T17:54:09.596Z,29.10
2022-12-18T17:56:36.503Z,27.60
2022-12-18T17:59:03.294Z,31.90
2022-12-18T18:01:30.116Z,29.30
2022-12-18T18:03:57.117Z,26.40
2022-12-18T18:06:24.252Z,23.40
2022-12-18T18:08:51.566Z,32.10
2022-12-18T18:11:40.016Z,20.40
2022-12-18T18:14:13.199Z,19.10
2022-12-18T18:16:42.916Z,20.60
2022-12-18T18:19:14.123Z,19.30
2022-12-18T18:21:43.304Z,22.00
2022-12-18T18:24:13.473Z,17.20
2022-12-18T18:26:41.179Z,14.60
2022-12-18T18:29:08.566Z,16.80
2022-12-18T18:31:40.847Z,13.20
2022-12-18T18:34:14.790Z,15.80
2022-12-18T18:36:41.751Z,12.00
2022-12-18T18:39:09.055Z,13.10
2022-12-18T18:41:37.513Z,13.00
2022-12-18T18:44:04.345Z,11.60
2022-12-18T18:46:31.064Z,14.50
2022-12-18T18:48:57.853Z,14.50
2022-12-18T18:51:25.671Z,13.50
2022-12-18T18:53:54.629Z,12.40
2022-12-18T18:59:09.763Z,15.00
2022-12-18T19:01:36.579Z,15.10
2022-12-18T19:04:05.034Z,15.80
2022-12-18T19:06:32.383Z,13.60
2022-12-18T19:09:01.932Z,11.20
2022-12-18T19:11:47.384Z,13.30
2022-12-18T19:14:15.150Z,11.90
2022-12-18T19:16:44.331Z,10.60
2022-12-18T19:19:12.377Z,10.30
2022-12-18T19:21:39.525Z,11.00
2022-12-18T19:24:06.668Z,12.90
2022-12-18T19:26:33.791Z,19.00
2022-12-18T19:29:05.153Z,21.30
2022-12-18T19:31:35.517Z,21.30
2022-12-18T19:34:06.084Z,19.60
2022-12-18T19:36:35.139Z,25.20
2022-12-18T19:39:10.984Z,22.70
2022-12-18T19:41:39.346Z,16.80
2022-12-18T19:44:08.091Z,18.30
2022-12-18T19:46:35.901Z,16.80
2022-12-18T19:49:02.911Z,13.10
2022-12-18T19:51:31.732Z,10.70
2022-12-18T19:54:01.732Z,11.50
2022-12-18T19:56:31.334Z,10.30
2022-12-18T19:58:58.607Z,9.70
2022-12-18T20:01:27.227Z,15.40
2022-12-18T20:03:55.199Z,28.00
2022-12-18T20:06:46.036Z,26.10
2022-12-18T20:09:12.783Z,32.90
2022-12-18T20:11:42.046Z,30.00
2022-12-18T20:14:11.321Z,40.30
2022-12-18T20:16:38.147Z,41.00
2022-12-18T20:19:05.620Z,29.40
2022-12-18T20:21:32.743Z,23.70
2022-12-18T20:24:00.683Z,40.90
2022-12-18T20:26:27.565Z,40.00
2022-12-18T20:28:54.837Z,33.70
2022-12-18T20:31:22.345Z,30.10
2022-12-18T20:33:49.920Z,27.20
2022-12-18T20:36:22.542Z,25.60
2022-12-18T20:38:57.174Z,17.40
2022-12-18T20:41:26.154Z,18.00
2022-12-18T20:43:55.075Z,12.70
2022-12-18T20:46:21.966Z,24.30
2022-12-18T20:48:48.732Z,22.50
2022-12-18T20:51:19.408Z,23.60
2022-12-18T20:53:47.390Z,11.80
2022-12-18T20:56:21.150Z,17.30
2022-12-18T20:58:50.005Z,17.70
2022-12-18T21:01:20.135Z,16.30
2022-12-18T21:03:47.756Z,21.50
2022-12-18T21:06:17.893Z,19.60
2022-12-18T21:08:44.790Z,19.90
2022-12-18T21:11:32.213Z,25.20
2022-12-18T21:13:59.907Z,23.30
2022-12-18T21:16:26.701Z,23.00
2022-12-18T21:18:54.466Z,19.00
2022-12-18T21:21:26.367Z,29.50
2022-12-18T21:23:53.948Z,25.50
2022-12-18T21:26:25.879Z,25.30
2022-12-18T21:28:55.169Z,10.80
2022-12-18T21:31:24.408Z,44.00
2022-12-18T21:33:51.914Z,13.40
2022-12-18T21:36:19.968Z,16.90
2022-12-18T21:38:46.676Z,11.90
2022-12-18T21:41:37.521Z,16.90
2022-12-18T21:44:11.375Z,33.20
2022-12-18T21:46:40.384Z,33.70
2022-12-18T21:49:08.240Z,18.30
2022-12-18T21:51:36.189Z,18.50
2022-12-18T21:54:03.815Z,20.70
2022-12-18T21:56:47.717Z,16.90
2022-12-18T21:59:19.329Z,18.70
2022-12-18T22:01:47.346Z,16.00
2022-12-18T22:04:15.475Z,17.60
2022-12-18T22:06:42.588Z,15.40
2022-12-18T22:09:11.748Z,15.40
2022-12-18T22:11:38.545Z,14.50
2022-12-18T22:14:05.901Z,29.00
2022-12-18T22:16:32.693Z,28.90
2022-12-18T22:18:59.353Z,20.30
2022-12-18T22:21:31.331Z,19.40
2022-12-18T22:24:00.578Z,18.80
2022-12-18T22:26:33.879Z,23.70
2022-12-18T22:29:23.683Z,17.30
2022-12-18T22:31:50.511Z,19.80
2022-12-18T22:34:20.650Z,15.90
2022-12-18T22:36:50.253Z,16.20
2022-12-18T22:39:23.048Z,16.20
2022-12-18T22:41:50.067Z,52.60
2022-12-18T22:44:18.122Z,35.00
2022-12-18T22:46:47.782Z,17.00
2022-12-18T22:49:23.158Z,12.80
2022-12-18T22:51:51.096Z,17.10
2022-12-18T22:54:18.152Z,31.20
2022-12-18T22:56:45.232Z,37.90
2022-12-18T22:59:19.367Z,25.60
2022-12-18T23:01:47.968Z,18.00
2022-12-18T23:04:16.871Z,18.70
2022-12-18T23:06:44.884Z,17.10
2022-12-18T23:09:17.866Z,18.40
2022-12-18T23:11:46.140Z,12.10
2022-12-18T23:14:13.026Z,22.90
2022-12-18T23:16:39.861Z,25.70
2022-12-18T23:19:07.496Z,58.40
2022-12-18T23:21:34.652Z,23.30
2022-12-18T23:24:02.683Z,15.40
2022-12-18T23:26:29.441Z,15.00
2022-12-18T23:28:56.373Z,23.40
2022-12-18T23:31:26.472Z,25.80
2022-12-18T23:33:55.628Z,23.10
2022-12-18T23:36:23.172Z,20.20
2022-12-18T23:38:55.149Z,13.10
2022-12-18T23:41:24.386Z,12.00
2022-12-18T23:43:51.553Z,12.30
2022-12-18T23:46:21.467Z,10.70
2022-12-18T23:48:48.993Z,11.30
2022-12-18T23:51:17.059Z,12.20
2022-12-18T23:53:44.711Z,11.40
2022-12-18T23:56:14.035Z,23.30
2022-12-18T23:58:42.477Z,30.30
